New Boston, Illinois
Current Conditions -  °F | °C
As of 3:55 AM on Saturday 25 Oct 2014 (Local Time) from KMUT Reporting Station
Moderate Fog Moderate Fog  
Wind Chill: 55°   Ceiling: 200
Heat Index: 55°   Visibility: 0mi
Dew Point: 54°   Wind: 7mph
Humidity: 94%   Direction: 300°WNW
Pressure: 29.95"   Gusts: NA
Location:  41.17°N, 91°W
Report Text: KMUT 250855Z AUTO 30006KT M1/4SM FG OVC002 13/12 A2995 RMK AO2
Loading
Personal Weather Stations






























Interactive Weather Map
Tropical Storm Tracking
New forecast layout! Learn more

10-Day Weather Forecast

Advertisements
Track Severe Weather on mobile